createdAt,value
2022-10-09T00:01:23.321Z,9.82
2022-10-09T00:03:53.895Z,10.48
2022-10-09T00:06:23.983Z,10.85
2022-10-09T00:08:52.465Z,11.45
2022-10-09T00:11:23.766Z,10.32
2022-10-09T00:13:52.996Z,10.30
2022-10-09T00:16:22.190Z,9.70
2022-10-09T00:18:50.569Z,9.80
2022-10-09T00:21:22.173Z,10.00
2022-10-09T00:23:51.662Z,9.63
2022-10-09T00:26:20.069Z,10.25
2022-10-09T00:28:49.965Z,9.32
2022-10-09T00:31:18.246Z,9.82
2022-10-09T00:33:47.225Z,10.60
2022-10-09T00:36:17.851Z,10.80
2022-10-09T00:38:46.118Z,11.15
2022-10-09T00:41:17.015Z,9.93
2022-10-09T00:43:48.341Z,10.35
2022-10-09T00:46:46.874Z,9.85
2022-10-09T00:49:27.131Z,9.75
2022-10-09T00:51:57.746Z,9.45
2022-10-09T00:54:30.512Z,8.75
2022-10-09T00:56:58.815Z,9.98
2022-10-09T00:59:27.931Z,9.43
2022-10-09T01:01:57.549Z,8.85
2022-10-09T01:04:25.794Z,9.32
2022-10-09T01:07:05.678Z,8.20
2022-10-09T01:09:41.207Z,8.60
2022-10-09T01:12:19.647Z,9.90
2022-10-09T01:14:55.832Z,8.98
2022-10-09T01:17:34.332Z,9.40
2022-10-09T01:20:23.898Z,9.52
2022-10-09T01:23:06.781Z,9.32
2022-10-09T01:25:41.435Z,8.45
2022-10-09T01:28:12.183Z,10.68
2022-10-09T01:30:40.476Z,11.68
2022-10-09T01:33:09.259Z,10.55
2022-10-09T01:35:38.203Z,10.65
2022-10-09T01:38:06.720Z,10.63
2022-10-09T01:40:35.787Z,9.00
2022-10-09T01:43:04.522Z,10.35
2022-10-09T01:45:40.554Z,11.10
2022-10-09T01:48:14.024Z,11.00
2022-10-09T01:50:46.790Z,11.95
2022-10-09T01:53:20.046Z,10.55
2022-10-09T01:55:54.027Z,10.88
2022-10-09T01:58:24.946Z,10.40
2022-10-09T02:01:03.488Z,10.57
2022-10-09T02:03:33.206Z,9.25
2022-10-09T02:06:03.436Z,11.10
2022-10-09T02:08:33.526Z,11.32
2022-10-09T02:11:02.851Z,9.75
2022-10-09T02:13:32.632Z,11.05
2022-10-09T02:16:11.375Z,10.40
2022-10-09T02:18:41.774Z,10.80
2022-10-09T02:21:14.465Z,10.48
2022-10-09T02:23:44.207Z,9.20
2022-10-09T02:26:13.750Z,10.90
2022-10-09T02:28:45.866Z,10.88
2022-10-09T02:31:21.474Z,10.95
2022-10-09T02:33:56.526Z,11.02
2022-10-09T02:36:24.804Z,10.50
2022-10-09T02:38:53.054Z,11.90
2022-10-09T02:41:21.220Z,11.43
2022-10-09T02:43:49.433Z,10.85
2022-10-09T02:46:19.345Z,11.10
2022-10-09T02:48:47.597Z,11.80
2022-10-09T02:51:16.243Z,10.25
2022-10-09T02:53:44.831Z,11.27
2022-10-09T02:56:12.985Z,11.52
2022-10-09T02:58:41.442Z,10.85
2022-10-09T03:01:10.231Z,9.45
2022-10-09T03:03:39.775Z,9.63
2022-10-09T03:06:10.485Z,10.82
2022-10-09T03:08:40.144Z,10.15
2022-10-09T03:11:09.373Z,11.05
2022-10-09T03:13:39.654Z,10.32
2022-10-09T03:16:09.056Z,8.70
2022-10-09T03:18:39.345Z,9.95
2022-10-09T03:21:08.307Z,9.68
2022-10-09T03:23:36.553Z,10.93
2022-10-09T03:26:06.574Z,11.05
2022-10-09T03:28:36.934Z,8.43
2022-10-09T03:31:05.523Z,9.27
2022-10-09T03:33:33.954Z,9.85
2022-10-09T03:36:04.358Z,9.27
2022-10-09T03:38:32.538Z,8.05
2022-10-09T03:41:01.410Z,9.10
2022-10-09T03:43:29.894Z,8.77
2022-10-09T03:46:00.990Z,8.98
2022-10-09T03:48:29.338Z,9.45
2022-10-09T03:50:57.457Z,9.05
2022-10-09T03:53:27.770Z,8.65
2022-10-09T03:55:55.882Z,8.73
2022-10-09T03:58:24.138Z,7.45
2022-10-09T04:00:53.208Z,9.38
2022-10-09T04:03:22.003Z,9.02
2022-10-09T04:05:50.095Z,8.10
2022-10-09T04:08:18.250Z,8.90
2022-10-09T04:10:47.769Z,8.18
2022-10-09T04:13:15.866Z,8.85
2022-10-09T04:15:51.278Z,8.48
2022-10-09T04:18:19.639Z,9.55
2022-10-09T04:20:51.211Z,9.85
2022-10-09T04:23:19.667Z,9.32
2022-10-09T04:25:49.180Z,10.13
2022-10-09T04:28:17.324Z,9.60
2022-10-09T04:30:45.466Z,10.00
2022-10-09T04:33:13.558Z,10.57
2022-10-09T04:35:43.231Z,10.35
2022-10-09T04:38:11.379Z,10.25
2022-10-09T04:40:39.561Z,10.93
2022-10-09T04:43:09.210Z,11.23
2022-10-09T04:45:40.985Z,11.27
2022-10-09T04:48:09.160Z,11.02
2022-10-09T04:50:39.702Z,11.38
2022-10-09T04:53:09.462Z,11.38
2022-10-09T04:55:40.215Z,11.38
2022-10-09T04:58:11.120Z,12.25
2022-10-09T05:00:41.675Z,12.20
2022-10-09T05:03:10.487Z,11.80
2022-10-09T05:05:38.786Z,11.98
2022-10-09T05:08:06.985Z,10.32
2022-10-09T05:10:35.194Z,10.25
2022-10-09T05:13:03.317Z,10.90
2022-10-09T05:15:33.238Z,11.88
2022-10-09T05:18:01.389Z,11.55
2022-10-09T05:20:29.602Z,11.27
2022-10-09T05:22:57.747Z,11.50
2022-10-09T05:25:25.898Z,11.57
2022-10-09T05:27:54.026Z,12.32
2022-10-09T05:30:22.161Z,11.40
2022-10-09T05:32:51.951Z,10.40
2022-10-09T05:35:20.230Z,12.43
2022-10-09T05:37:48.374Z,10.88
2022-10-09T05:40:16.606Z,11.27
2022-10-09T05:42:44.714Z,11.38
2022-10-09T05:45:12.856Z,11.98
2022-10-09T05:47:41.056Z,12.02
2022-10-09T05:50:10.839Z,10.70
2022-10-09T05:52:40.033Z,12.82
2022-10-09T05:55:08.742Z,12.40
2022-10-09T05:57:36.933Z,13.40
2022-10-09T06:00:06.057Z,12.80
2022-10-09T06:02:40.483Z,12.05
2022-10-09T06:05:11.428Z,13.23
2022-10-09T06:07:39.521Z,12.57
2022-10-09T06:10:08.565Z,13.00
2022-10-09T06:12:36.710Z,11.60
2022-10-09T06:15:05.306Z,11.75
2022-10-09T06:17:34.075Z,11.10
2022-10-09T06:20:02.195Z,12.77
2022-10-09T06:22:31.683Z,12.32
2022-10-09T06:24:59.786Z,11.32
2022-10-09T06:27:29.149Z,10.95
2022-10-09T06:29:57.395Z,11.45
2022-10-09T06:32:25.500Z,11.00
2022-10-09T06:34:53.630Z,10.85
2022-10-09T06:37:21.779Z,10.88
2022-10-09T06:39:51.294Z,12.45
2022-10-09T06:42:19.398Z,9.83
2022-10-09T06:44:57.699Z,9.83
2022-10-09T06:47:25.882Z,8.37
2022-10-09T06:49:53.979Z,9.70
2022-10-09T06:52:22.071Z,10.73
2022-10-09T06:54:51.551Z,10.67
2022-10-09T06:57:19.633Z,10.30
2022-10-09T06:59:50.140Z,10.50
2022-10-09T07:02:18.323Z,10.40
2022-10-09T07:04:48.344Z,9.57
2022-10-09T07:07:16.514Z,9.40
2022-10-09T07:09:44.662Z,9.63
2022-10-09T07:12:14.148Z,9.20
2022-10-09T07:14:42.267Z,11.53
2022-10-09T07:17:10.371Z,9.43
2022-10-09T07:19:38.711Z,10.30
2022-10-09T07:22:11.334Z,9.87
2022-10-09T07:24:39.499Z,8.70
2022-10-09T07:27:07.664Z,10.70
2022-10-09T07:29:37.172Z,10.20
2022-10-09T07:32:10.250Z,9.87
2022-10-09T07:34:38.742Z,10.53
2022-10-09T07:37:06.898Z,8.83
2022-10-09T07:39:36.433Z,9.70
2022-10-09T07:42:05.172Z,9.70
2022-10-09T07:44:33.294Z,10.00
2022-10-09T07:47:02.763Z,11.00
2022-10-09T07:49:30.888Z,10.57
2022-10-09T07:51:58.995Z,11.90
2022-10-09T07:54:27.090Z,12.17
2022-10-09T07:56:55.277Z,9.67
2022-10-09T07:59:23.415Z,10.50
2022-10-09T08:01:51.591Z,10.93
2022-10-09T08:04:21.202Z,10.47
2022-10-09T08:06:50.518Z,10.87
2022-10-09T08:09:19.682Z,11.50
2022-10-09T08:11:47.841Z,10.87
2022-10-09T08:14:19.290Z,10.47
2022-10-09T08:16:48.049Z,11.40
2022-10-09T08:19:16.548Z,10.33
2022-10-09T08:21:46.204Z,12.00
2022-10-09T08:24:15.034Z,10.50
2022-10-09T08:26:44.251Z,10.57
2022-10-09T08:29:13.924Z,10.10
2022-10-09T08:31:42.385Z,8.93
2022-10-09T08:34:10.646Z,9.33
2022-10-09T08:36:39.043Z,9.87
2022-10-09T08:39:08.662Z,8.20
2022-10-09T08:41:46.222Z,8.83
2022-10-09T08:44:21.993Z,7.80
2022-10-09T08:47:04.912Z,7.93
2022-10-09T08:49:43.238Z,6.97
2022-10-09T08:52:23.451Z,7.10
2022-10-09T08:54:56.056Z,7.60
2022-10-09T08:57:24.282Z,6.33
2022-10-09T08:59:52.450Z,6.47
2022-10-09T09:02:40.820Z,7.07
2022-10-09T09:05:24.348Z,6.17
2022-10-09T09:08:01.306Z,6.90
2022-10-09T09:10:41.285Z,6.40
2022-10-09T09:13:24.613Z,6.20
2022-10-09T09:15:59.608Z,6.23
2022-10-09T09:18:42.718Z,5.93
2022-10-09T09:21:24.100Z,6.20
2022-10-09T09:23:52.638Z,5.23
2022-10-09T09:26:23.499Z,5.77
2022-10-09T09:28:57.193Z,6.00
2022-10-09T09:31:29.773Z,4.23
2022-10-09T09:34:02.911Z,5.83
2022-10-09T09:36:36.767Z,5.10
2022-10-09T09:42:00.154Z,5.93
2022-10-09T09:44:32.537Z,6.40
2022-10-09T09:47:00.824Z,6.03
2022-10-09T09:49:30.052Z,4.43
2022-10-09T09:52:01.862Z,5.77
2022-10-09T09:54:31.342Z,5.60
2022-10-09T09:57:21.716Z,5.90
2022-10-09T09:59:50.106Z,4.53
2022-10-09T10:02:21.172Z,6.07
2022-10-09T10:04:54.153Z,5.20
2022-10-09T10:07:32.321Z,5.80
2022-10-09T10:10:05.850Z,4.87
2022-10-09T10:12:40.555Z,5.83
2022-10-09T10:15:18.913Z,5.37
2022-10-09T10:17:48.889Z,4.70
2022-10-09T10:20:18.276Z,5.37
2022-10-09T10:22:52.289Z,5.10
2022-10-09T10:25:23.297Z,5.00
2022-10-09T10:27:57.203Z,4.97
2022-10-09T10:30:25.486Z,4.73
2022-10-09T10:33:01.079Z,4.07
2022-10-09T10:35:32.668Z,4.60
2022-10-09T10:38:06.479Z,5.20
2022-10-09T10:40:37.849Z,4.67
2022-10-09T10:43:16.976Z,5.30
2022-10-09T10:45:58.250Z,6.10
2022-10-09T10:48:29.593Z,4.90
2022-10-09T10:51:09.830Z,6.20
2022-10-09T10:53:49.517Z,4.93
2022-10-09T10:56:27.581Z,4.80
2022-10-09T10:59:14.238Z,5.20
2022-10-09T11:01:50.786Z,4.97
2022-10-09T11:04:46.301Z,5.20
2022-10-09T11:07:26.270Z,4.77
2022-10-09T11:10:04.072Z,5.43
2022-10-09T11:12:48.211Z,4.70
2022-10-09T11:15:26.884Z,5.10
2022-10-09T11:18:05.215Z,5.00
2022-10-09T11:21:12.006Z,5.00
2022-10-09T11:24:05.013Z,4.77
2022-10-09T11:26:42.564Z,4.70
2022-10-09T11:29:16.682Z,6.20
2022-10-09T11:31:50.279Z,4.87
2022-10-09T11:34:23.284Z,4.93
2022-10-09T11:36:51.532Z,5.57
2022-10-09T11:39:23.602Z,5.50
2022-10-09T11:41:54.302Z,4.40
2022-10-09T11:44:41.690Z,4.43
2022-10-09T11:47:21.340Z,5.10
2022-10-09T11:50:04.349Z,4.80
2022-10-09T11:52:43.370Z,4.97
2022-10-09T11:55:20.670Z,4.43
2022-10-09T11:57:49.245Z,4.20
2022-10-09T12:00:29.096Z,4.27
2022-10-09T12:03:02.024Z,5.13
2022-10-09T12:05:38.711Z,4.30
2022-10-09T12:08:11.162Z,4.60
2022-10-09T12:10:44.136Z,4.87
2022-10-09T12:13:31.339Z,4.60
2022-10-09T12:16:00.729Z,4.10
2022-10-09T12:18:32.483Z,4.80
2022-10-09T12:21:04.356Z,5.13
2022-10-09T12:23:35.940Z,4.07
2022-10-09T12:26:05.509Z,4.10
2022-10-09T12:28:37.598Z,4.40
2022-10-09T12:31:16.760Z,4.70
2022-10-09T12:33:50.467Z,5.10
2022-10-09T12:36:25.009Z,4.40
2022-10-09T12:38:53.178Z,4.70
2022-10-09T12:41:25.194Z,4.70
2022-10-09T12:43:55.740Z,4.33
2022-10-09T12:46:30.689Z,3.80
2022-10-09T12:49:01.813Z,4.60
2022-10-09T12:51:32.774Z,4.10
2022-10-09T12:54:01.212Z,4.57
2022-10-09T12:56:33.172Z,4.47
2022-10-09T12:59:02.666Z,5.87
2022-10-09T13:01:31.555Z,5.97
2022-10-09T13:04:03.557Z,5.90
2022-10-09T13:06:37.921Z,5.17
2022-10-09T13:09:09.477Z,4.13
2022-10-09T13:11:42.013Z,4.50
2022-10-09T13:14:26.453Z,8.97
2022-10-09T13:16:54.676Z,5.93
2022-10-09T13:19:26.943Z,5.13
2022-10-09T13:22:09.325Z,7.30
2022-10-09T13:24:37.487Z,5.17
2022-10-09T13:27:06.522Z,5.10
2022-10-09T13:29:34.854Z,5.10
2022-10-09T13:32:03.294Z,5.00
2022-10-09T13:34:32.947Z,5.70
2022-10-09T13:37:01.205Z,4.80
2022-10-09T13:39:29.934Z,5.00
2022-10-09T13:42:00.026Z,4.70
2022-10-09T13:44:28.300Z,5.17
2022-10-09T13:46:56.649Z,5.20
2022-10-09T13:49:25.094Z,5.10
2022-10-09T13:51:55.011Z,5.60
2022-10-09T13:54:23.403Z,7.80
2022-10-09T13:56:51.979Z,6.63
2022-10-09T13:59:20.721Z,5.37
2022-10-09T14:01:49.290Z,4.97
2022-10-09T14:04:18.496Z,5.53
2022-10-09T14:06:46.802Z,5.30
2022-10-09T14:09:16.601Z,6.17
2022-10-09T14:11:45.214Z,5.97
2022-10-09T14:14:13.409Z,6.33
2022-10-09T14:16:41.766Z,5.93
2022-10-09T14:19:11.469Z,6.57
2022-10-09T14:21:39.801Z,6.60
2022-10-09T14:24:08.444Z,6.10
2022-10-09T14:26:39.131Z,8.30
2022-10-09T14:29:07.402Z,7.60
2022-10-09T14:31:35.965Z,8.40
2022-10-09T14:34:04.352Z,7.10
2022-10-09T14:36:32.841Z,6.67
2022-10-09T14:39:01.596Z,6.97
2022-10-09T14:41:34.315Z,7.50
2022-10-09T14:44:07.225Z,7.53
2022-10-09T14:46:37.749Z,7.93
2022-10-09T14:49:08.349Z,9.80
2022-10-09T14:51:37.993Z,10.20
2022-10-09T14:54:06.972Z,9.20
2022-10-09T14:56:35.630Z,10.67
2022-10-09T14:59:05.956Z,10.80
2022-10-09T15:01:35.696Z,11.47
2022-10-09T15:04:04.914Z,12.47
2022-10-09T15:06:34.097Z,11.93
2022-10-09T15:09:05.383Z,11.50
2022-10-09T15:11:34.579Z,11.20
2022-10-09T15:14:03.051Z,11.00
2022-10-09T15:16:31.330Z,11.10
2022-10-09T15:19:01.014Z,13.97
2022-10-09T15:21:31.552Z,14.80
2022-10-09T15:24:01.394Z,11.70
2022-10-09T15:26:32.783Z,12.20
2022-10-09T15:29:03.007Z,13.20
2022-10-09T15:31:33.909Z,13.73
2022-10-09T15:34:03.758Z,13.57
2022-10-09T15:36:34.900Z,13.40
2022-10-09T15:39:07.486Z,13.90
2022-10-09T15:41:38.736Z,15.50
2022-10-09T15:44:15.153Z,19.83
2022-10-09T15:46:43.417Z,15.70
2022-10-09T15:49:13.810Z,16.70
2022-10-09T15:51:42.398Z,14.17
2022-10-09T15:54:12.194Z,14.20
2022-10-09T15:56:41.395Z,14.90
2022-10-09T15:59:12.113Z,15.87
2022-10-09T16:01:40.608Z,14.53
2022-10-09T16:04:09.466Z,16.77
2022-10-09T16:06:39.398Z,17.13
2022-10-09T16:09:07.563Z,19.40
2022-10-09T16:11:35.788Z,18.30
2022-10-09T16:14:04.570Z,15.30
2022-10-09T16:16:32.810Z,15.73
2022-10-09T16:19:04.200Z,15.47
2022-10-09T16:21:32.658Z,17.13
2022-10-09T16:24:02.189Z,16.30
2022-10-09T16:26:30.599Z,19.77
2022-10-09T16:29:00.007Z,19.03
2022-10-09T16:31:30.250Z,18.30
2022-10-09T16:33:59.057Z,17.53
2022-10-09T16:36:27.698Z,22.47
2022-10-09T16:38:56.660Z,22.10
2022-10-09T16:41:26.993Z,20.90
2022-10-09T16:43:56.886Z,19.43
2022-10-09T16:46:27.835Z,20.30
2022-10-09T16:48:57.817Z,23.93
2022-10-09T16:51:29.009Z,25.57
2022-10-09T16:53:59.816Z,23.23
2022-10-09T16:56:32.887Z,20.90
2022-10-09T16:59:03.208Z,19.60
2022-10-09T17:01:32.299Z,21.67
2022-10-09T17:04:01.502Z,21.00
2022-10-09T17:06:29.673Z,21.53
2022-10-09T17:08:59.232Z,21.03
2022-10-09T17:11:32.348Z,20.97
2022-10-09T17:14:01.035Z,21.27
2022-10-09T17:16:31.864Z,21.33
2022-10-09T17:19:00.108Z,24.13
2022-10-09T17:21:32.878Z,23.33
2022-10-09T17:24:04.557Z,23.23
2022-10-09T17:26:34.404Z,22.47
2022-10-09T17:29:03.279Z,24.23
2022-10-09T17:31:31.880Z,22.10
2022-10-09T17:34:02.154Z,25.83
2022-10-09T17:36:33.231Z,24.53
2022-10-09T17:39:01.747Z,22.70
2022-10-09T17:41:30.283Z,23.67
2022-10-09T17:43:59.867Z,24.00
2022-10-09T17:46:29.384Z,22.67
2022-10-09T17:48:58.468Z,23.70
2022-10-09T17:51:29.252Z,26.43
2022-10-09T17:53:59.553Z,27.73
2022-10-09T17:56:27.901Z,29.93
2022-10-09T17:58:56.915Z,25.00
2022-10-09T18:01:26.464Z,27.20
2022-10-09T18:03:54.680Z,29.87
2022-10-09T18:06:23.910Z,28.00
2022-10-09T18:08:54.077Z,28.27
2022-10-09T18:11:24.211Z,29.30
2022-10-09T18:13:53.606Z,29.37
2022-10-09T18:16:32.702Z,29.50
2022-10-09T18:19:08.994Z,28.10
2022-10-09T18:21:38.600Z,28.57
2022-10-09T18:24:07.231Z,28.40
2022-10-09T18:26:36.135Z,31.63
2022-10-09T18:29:05.216Z,30.53
2022-10-09T18:31:33.467Z,29.33
2022-10-09T18:34:01.953Z,31.67
2022-10-09T18:36:33.761Z,35.23
2022-10-09T18:39:04.894Z,34.57
2022-10-09T18:41:33.706Z,38.37
2022-10-09T18:44:02.455Z,36.60
2022-10-09T18:46:35.443Z,36.33
2022-10-09T18:49:03.726Z,33.47
2022-10-09T18:51:33.472Z,36.13
2022-10-09T18:54:04.084Z,39.87
2022-10-09T18:56:33.835Z,39.90
2022-10-09T18:59:06.330Z,35.83
2022-10-09T19:01:34.506Z,34.00
2022-10-09T19:04:02.930Z,34.60
2022-10-09T19:06:31.111Z,33.23
2022-10-09T19:09:01.605Z,32.73
2022-10-09T19:11:30.592Z,31.70
2022-10-09T19:14:00.782Z,31.93
2022-10-09T19:16:30.038Z,30.23
2022-10-09T19:18:58.351Z,32.53
2022-10-09T19:21:27.079Z,29.90
2022-10-09T19:23:55.412Z,30.40
2022-10-09T19:26:25.023Z,31.90
2022-10-09T19:28:53.182Z,31.30
2022-10-09T19:31:21.338Z,26.23
2022-10-09T19:33:49.491Z,26.80
2022-10-09T19:36:17.750Z,24.77
2022-10-09T19:38:46.886Z,26.63
2022-10-09T19:41:16.763Z,25.37
2022-10-09T19:43:46.263Z,26.93
2022-10-09T19:46:17.275Z,27.00
2022-10-09T19:48:45.904Z,28.70
2022-10-09T19:51:16.534Z,29.67
2022-10-09T19:53:44.727Z,28.90
2022-10-09T19:56:14.082Z,28.50
2022-10-09T19:58:43.022Z,29.53
2022-10-09T20:01:14.086Z,29.37
2022-10-09T20:03:43.123Z,29.80
2022-10-09T20:06:12.006Z,28.47
2022-10-09T20:08:41.704Z,27.33
2022-10-09T20:11:11.568Z,25.37
2022-10-09T20:13:41.041Z,28.83
2022-10-09T20:16:11.852Z,27.13
2022-10-09T20:18:42.423Z,25.50
2022-10-09T20:21:11.819Z,26.57
2022-10-09T20:23:39.933Z,28.13
2022-10-09T20:26:09.862Z,30.27
2022-10-09T20:28:39.455Z,27.37
2022-10-09T20:31:09.846Z,28.37
2022-10-09T20:33:39.796Z,31.53
2022-10-09T20:36:10.419Z,29.40
2022-10-09T20:38:38.607Z,32.40
2022-10-09T20:41:08.654Z,33.97
2022-10-09T20:43:37.514Z,33.37
2022-10-09T20:46:08.222Z,35.50
2022-10-09T20:48:36.669Z,33.37
2022-10-09T20:51:05.283Z,35.10
2022-10-09T20:53:35.183Z,34.37
2022-10-09T20:56:05.427Z,34.67
2022-10-09T20:58:34.357Z,32.07
2022-10-09T21:01:06.427Z,31.07
2022-10-09T21:03:35.116Z,35.07
2022-10-09T21:06:04.672Z,34.57
2022-10-09T21:08:34.355Z,33.67
2022-10-09T21:11:06.343Z,33.70
2022-10-09T21:13:35.311Z,32.80
2022-10-09T21:16:06.786Z,34.20
2022-10-09T21:18:34.950Z,35.20
2022-10-09T21:21:06.078Z,35.37
2022-10-09T21:23:36.649Z,31.60
2022-10-09T21:26:06.074Z,33.00
2022-10-09T21:28:34.332Z,31.70
2022-10-09T21:31:02.486Z,32.70
2022-10-09T21:33:30.612Z,34.13
2022-10-09T21:35:58.828Z,32.50
2022-10-09T21:38:27.039Z,34.93
2022-10-09T21:40:56.841Z,34.43
2022-10-09T21:43:24.953Z,33.00
2022-10-09T21:45:53.158Z,32.40
2022-10-09T21:48:21.529Z,32.87
2022-10-09T21:50:49.624Z,33.07
2022-10-09T21:53:17.959Z,30.97
2022-10-09T21:55:46.086Z,30.00
2022-10-09T21:58:15.709Z,28.70
2022-10-09T22:00:43.806Z,26.40
2022-10-09T22:03:12.116Z,27.00
2022-10-09T22:05:41.475Z,26.37
2022-10-09T22:08:10.053Z,26.00
2022-10-09T22:10:38.177Z,24.07
2022-10-09T22:13:06.341Z,25.27
2022-10-09T22:15:35.833Z,25.00
2022-10-09T22:18:03.983Z,25.40
2022-10-09T22:20:32.534Z,27.25
2022-10-09T22:23:00.771Z,28.53
2022-10-09T22:25:29.142Z,28.70
2022-10-09T22:27:57.271Z,29.70
2022-10-09T22:30:25.929Z,29.60
2022-10-09T22:32:55.677Z,30.15
2022-10-09T22:35:23.924Z,33.80
2022-10-09T22:37:52.034Z,36.95
2022-10-09T22:40:20.880Z,34.78
2022-10-09T22:42:49.283Z,35.08
2022-10-09T22:45:18.202Z,35.93
2022-10-09T22:47:47.841Z,36.45
2022-10-09T22:50:17.407Z,35.25
2022-10-09T22:52:45.486Z,34.65
2022-10-09T22:55:13.601Z,33.65
2022-10-09T22:57:41.906Z,29.35
2022-10-09T23:00:11.169Z,31.08
2022-10-09T23:02:39.283Z,27.45
2022-10-09T23:05:07.980Z,30.30
2022-10-09T23:07:37.475Z,30.05
2022-10-09T23:10:06.355Z,30.20
2022-10-09T23:12:34.478Z,31.05
2022-10-09T23:15:02.607Z,31.00
2022-10-09T23:17:30.779Z,30.88
2022-10-09T23:19:58.855Z,32.28
2022-10-09T23:22:26.999Z,35.25
2022-10-09T23:24:56.502Z,30.83
2022-10-09T23:27:24.654Z,28.00
2022-10-09T23:29:52.839Z,30.63
2022-10-09T23:32:21.027Z,31.17
2022-10-09T23:34:49.118Z,28.35
2022-10-09T23:37:17.290Z,28.35
2022-10-09T23:39:45.439Z,26.15
2022-10-09T23:42:14.919Z,26.50
2022-10-09T23:44:43.236Z,26.42
2022-10-09T23:47:11.323Z,27.63
2022-10-09T23:49:39.624Z,28.42
2022-10-09T23:52:07.838Z,26.13
2022-10-09T23:54:35.990Z,28.65
2022-10-09T23:57:04.167Z,27.17
2022-10-09T23:59:33.682Z,25.80
